RYR3842 EGSS-LERS
Flight info
| Callsign | RYR3842 |
|---|---|
| Flight time | 1h 42m |
| Altitude | 31000 |
| Route | NUGBO M183 SILVA Q41 COWLY UT71 VAPID UN859 SOPIL DCT BALAN DCT EVPOK DCT NARAK DCT GAI DCT LOMRA DCT ROCAN DCT PUMAL/N0358F230 N31 BERGA |
| Aircraft | B738/M-SDE2E3FGHIRWXY/LB1 |
Departure
| Time | 2026-04-24 21:39 |
|---|---|
| Airport | London Stansted Airport (EGSS) |
Arrival
| Time | 2026-04-24 23:22 |
|---|---|
| Airport | Reus Airport (LERS) |
| Time | Latitude | Longitude | Altitude | Speed | Heading |
|---|---|---|---|---|---|
| 2026-04-24 21:23 | 51.89160 | 0.25487 | 341 ft | 0 kts | 56° |
| 2026-04-24 21:27 | 51.89159 | 0.25487 | 341 ft | 0 kts | 56° |
| 2026-04-24 21:29 | 51.89158 | 0.25483 | 336 ft | 3 kts | 56° |
| 2026-04-24 21:29 | 51.89141 | 0.25452 | 337 ft | 4 kts | 30° |
| 2026-04-24 21:29 | 51.89118 | 0.25441 | 335 ft | 4 kts | 342° |
| 2026-04-24 21:30 | 51.89105 | 0.25453 | 339 ft | 2 kts | 312° |
| 2026-04-24 21:30 | 51.89103 | 0.25456 | 334 ft | 2 kts | 312° |
| 2026-04-24 21:32 | 51.89105 | 0.25452 | 336 ft | 2 kts | 312° |
| 2026-04-24 21:32 | 51.89130 | 0.25410 | 337 ft | 10 kts | 313° |
| 2026-04-24 21:32 | 51.89176 | 0.25318 | 351 ft | 11 kts | 298° |
| 2026-04-24 21:32 | 51.89217 | 0.25212 | 343 ft | 13 kts | 313° |
| 2026-04-24 21:33 | 51.89224 | 0.25069 | 348 ft | 16 kts | 240° |
| 2026-04-24 21:33 | 51.89134 | 0.24914 | 342 ft | 22 kts | 223° |
| 2026-04-24 21:33 | 51.89024 | 0.24749 | 342 ft | 21 kts | 223° |
| 2026-04-24 21:33 | 51.88917 | 0.24589 | 349 ft | 21 kts | 223° |
| 2026-04-24 21:34 | 51.88813 | 0.24433 | 347 ft | 20 kts | 222° |
| 2026-04-24 21:34 | 51.88711 | 0.24282 | 349 ft | 19 kts | 223° |
| 2026-04-24 21:34 | 51.88613 | 0.24137 | 349 ft | 19 kts | 223° |
| 2026-04-24 21:34 | 51.88518 | 0.23992 | 337 ft | 19 kts | 222° |
| 2026-04-24 21:35 | 51.88413 | 0.23836 | 339 ft | 22 kts | 223° |
| 2026-04-24 21:35 | 51.88296 | 0.23661 | 336 ft | 23 kts | 223° |
| 2026-04-24 21:35 | 51.88176 | 0.23482 | 337 ft | 23 kts | 223° |
| 2026-04-24 21:35 | 51.88061 | 0.23307 | 336 ft | 22 kts | 223° |
| 2026-04-24 21:36 | 51.87949 | 0.23139 | 332 ft | 22 kts | 222° |
| 2026-04-24 21:36 | 51.87839 | 0.22975 | 335 ft | 21 kts | 223° |
| 2026-04-24 21:36 | 51.87733 | 0.22816 | 334 ft | 20 kts | 222° |
| 2026-04-24 21:36 | 51.87630 | 0.22662 | 338 ft | 20 kts | 222° |
| 2026-04-24 21:37 | 51.87525 | 0.22504 | 332 ft | 22 kts | 223° |
| 2026-04-24 21:37 | 51.87415 | 0.22331 | 332 ft | 22 kts | 238° |
| 2026-04-24 21:37 | 51.87450 | 0.22119 | 329 ft | 22 kts | 313° |
| 2026-04-24 21:37 | 51.87546 | 0.22044 | 328 ft | 14 kts | 40° |
| 2026-04-24 21:38 | 51.87576 | 0.22089 | 327 ft | 0 kts | 42° |
| 2026-04-24 21:38 | 51.87597 | 0.22121 | 327 ft | 25 kts | 43° |
| 2026-04-24 21:38 | 51.87914 | 0.22595 | 332 ft | 98 kts | 43° |
| 2026-04-24 21:39 | 51.88573 | 0.23596 | 335 ft | 159 kts | 47° |
| 2026-04-24 21:39 | 51.89441 | 0.24886 | 919 ft | 171 kts | 44° |
| 2026-04-24 21:39 | 51.90316 | 0.26173 | 1826 ft | 173 kts | 44° |
| 2026-04-24 21:39 | 51.91265 | 0.27612 | 2235 ft | 203 kts | 44° |
| 2026-04-24 21:40 | 51.92393 | 0.29219 | 2520 ft | 227 kts | 34° |
| 2026-04-24 21:40 | 51.93951 | 0.30072 | 2827 ft | 253 kts | 2° |
| 2026-04-24 21:40 | 51.95655 | 0.29300 | 3634 ft | 259 kts | 326° |
| 2026-04-24 21:40 | 51.96797 | 0.27123 | 4689 ft | 257 kts | 292° |
| 2026-04-24 21:41 | 51.97222 | 0.24309 | 5629 ft | 258 kts | 279° |
| 2026-04-24 21:41 | 51.97489 | 0.21409 | 6504 ft | 263 kts | 278° |
| 2026-04-24 21:41 | 51.97756 | 0.18344 | 6850 ft | 289 kts | 278° |
| 2026-04-24 21:41 | 51.98062 | 0.14964 | 7081 ft | 317 kts | 279° |
| 2026-04-24 21:42 | 51.98428 | 0.11292 | 7133 ft | 339 kts | 280° |
| 2026-04-24 21:42 | 51.98825 | 0.07461 | 7150 ft | 351 kts | 278° |
| 2026-04-24 21:42 | 51.98733 | 0.03477 | 7814 ft | 357 kts | 259° |
| 2026-04-24 21:42 | 51.98182 | -0.00404 | 8632 ft | 359 kts | 257° |
| 2026-04-24 21:43 | 51.97631 | -0.04441 | 9397 ft | 365 kts | 258° |
| 2026-04-24 21:43 | 51.97108 | -0.08449 | 10162 ft | 370 kts | 258° |
| 2026-04-24 21:43 | 51.96575 | -0.12546 | 10902 ft | 373 kts | 258° |
| 2026-04-24 21:43 | 51.96030 | -0.16727 | 11672 ft | 375 kts | 258° |
| 2026-04-24 21:44 | 51.95495 | -0.20823 | 12411 ft | 378 kts | 258° |
| 2026-04-24 21:44 | 51.94948 | -0.25004 | 13155 ft | 381 kts | 258° |
| 2026-04-24 21:44 | 51.94386 | -0.29280 | 13885 ft | 385 kts | 258° |
| 2026-04-24 21:44 | 51.93826 | -0.33539 | 14520 ft | 389 kts | 258° |
| 2026-04-24 21:45 | 51.93258 | -0.37839 | 15195 ft | 391 kts | 258° |
| 2026-04-24 21:45 | 51.92695 | -0.42095 | 15860 ft | 393 kts | 258° |
| 2026-04-24 21:45 | 51.92117 | -0.46444 | 16479 ft | 397 kts | 258° |
| 2026-04-24 21:45 | 51.91533 | -0.50833 | 17039 ft | 402 kts | 258° |
| 2026-04-24 21:46 | 51.90939 | -0.55280 | 17668 ft | 405 kts | 258° |
| 2026-04-24 21:46 | 51.90344 | -0.59725 | 18293 ft | 407 kts | 258° |
| 2026-04-24 21:46 | 51.89735 | -0.64253 | 18836 ft | 411 kts | 258° |
| 2026-04-24 21:46 | 51.89131 | -0.68733 | 19382 ft | 413 kts | 258° |
| 2026-04-24 21:47 | 51.88511 | -0.73322 | 20027 ft | 412 kts | 258° |
| 2026-04-24 21:47 | 51.88097 | -0.76382 | 20452 ft | 412 kts | 258° |
| 2026-04-24 21:47 | 51.87284 | -0.82374 | 21230 ft | 412 kts | 258° |
| 2026-04-24 21:47 | 51.86665 | -0.86909 | 21784 ft | 413 kts | 258° |
| 2026-04-24 21:48 | 51.86007 | -0.91431 | 22309 ft | 415 kts | 254° |
| 2026-04-24 21:48 | 51.84700 | -0.95611 | 22794 ft | 422 kts | 235° |
| 2026-04-24 21:48 | 51.82612 | -0.98998 | 23292 ft | 430 kts | 220° |
| 2026-04-24 21:48 | 51.80006 | -1.01486 | 23628 ft | 442 kts | 206° |
| 2026-04-24 21:49 | 51.77003 | -1.02745 | 23983 ft | 452 kts | 193° |
| 2026-04-24 21:49 | 51.73894 | -1.03490 | 24357 ft | 454 kts | 191° |
| 2026-04-24 21:49 | 51.70747 | -1.04191 | 24707 ft | 456 kts | 192° |
| 2026-04-24 21:49 | 51.67600 | -1.04941 | 25052 ft | 458 kts | 192° |
| 2026-04-24 21:50 | 51.64442 | -1.05745 | 25401 ft | 460 kts | 193° |
| 2026-04-24 21:50 | 51.61262 | -1.06478 | 25740 ft | 464 kts | 188° |
| 2026-04-24 21:50 | 51.58017 | -1.06561 | 26068 ft | 470 kts | 181° |
| 2026-04-24 21:50 | 51.54740 | -1.06311 | 26413 ft | 472 kts | 180° |
| 2026-04-24 21:51 | 51.51459 | -1.06024 | 26762 ft | 473 kts | 180° |
| 2026-04-24 21:51 | 51.48166 | -1.05763 | 27071 ft | 475 kts | 180° |
| 2026-04-24 21:51 | 51.44859 | -1.05543 | 27361 ft | 477 kts | 181° |
| 2026-04-24 21:51 | 51.41539 | -1.05353 | 27648 ft | 479 kts | 181° |
| 2026-04-24 21:52 | 51.38206 | -1.05172 | 27948 ft | 480 kts | 181° |
| 2026-04-24 21:52 | 51.34870 | -1.04989 | 28332 ft | 479 kts | 181° |
| 2026-04-24 21:52 | 51.31544 | -1.04811 | 28803 ft | 477 kts | 181° |
| 2026-04-24 21:52 | 51.28249 | -1.04598 | 29334 ft | 474 kts | 178° |
| 2026-04-24 21:53 | 51.24986 | -1.03757 | 29791 ft | 476 kts | 169° |
| 2026-04-24 21:53 | 51.21831 | -1.02132 | 30194 ft | 479 kts | 159° |
| 2026-04-24 21:53 | 51.18794 | -0.99910 | 30556 ft | 479 kts | 157° |
| 2026-04-24 21:53 | 51.15788 | -0.97644 | 30921 ft | 478 kts | 157° |
| 2026-04-24 21:54 | 51.12787 | -0.95392 | 31260 ft | 477 kts | 158° |
| 2026-04-24 21:54 | 51.06881 | -0.91044 | 31247 ft | 451 kts | 159° |
| 2026-04-24 21:54 | 51.04076 | -0.89010 | 31233 ft | 436 kts | 159° |
| 2026-04-24 21:55 | 51.01358 | -0.87051 | 31240 ft | 422 kts | 159° |
| 2026-04-24 21:55 | 50.96035 | -0.83238 | 31260 ft | 421 kts | 159° |
| 2026-04-24 21:56 | 50.90656 | -0.79388 | 31258 ft | 426 kts | 159° |
| 2026-04-24 21:56 | 50.85238 | -0.75458 | 31244 ft | 431 kts | 155° |
| 2026-04-24 21:57 | 50.80100 | -0.70447 | 31253 ft | 435 kts | 149° |
| 2026-04-24 21:57 | 50.75072 | -0.65171 | 31240 ft | 433 kts | 149° |
| 2026-04-24 21:58 | 50.70049 | -0.59976 | 31238 ft | 429 kts | 150° |
| 2026-04-24 21:58 | 50.65050 | -0.54888 | 31238 ft | 426 kts | 150° |
| 2026-04-24 21:59 | 50.60113 | -0.49903 | 31237 ft | 424 kts | 150° |
| 2026-04-24 21:59 | 50.55098 | -0.44857 | 31259 ft | 435 kts | 150° |
| 2026-04-24 22:00 | 50.50755 | -0.40498 | 31251 ft | 448 kts | 150° |
| 2026-04-24 22:00 | 50.44534 | -0.34266 | 31251 ft | 464 kts | 150° |
| 2026-04-24 22:01 | 50.39022 | -0.28757 | 31245 ft | 475 kts | 150° |
| 2026-04-24 22:01 | 50.33387 | -0.23138 | 31240 ft | 483 kts | 150° |
| 2026-04-24 22:02 | 50.27729 | -0.17512 | 31225 ft | 481 kts | 150° |
| 2026-04-24 22:02 | 50.22082 | -0.11916 | 31224 ft | 480 kts | 150° |
| 2026-04-24 22:03 | 50.16436 | -0.06337 | 31226 ft | 479 kts | 149° |
| 2026-04-24 22:03 | 50.10758 | -0.00920 | 31218 ft | 477 kts | 155° |
| 2026-04-24 22:04 | 50.04526 | 0.02360 | 31232 ft | 472 kts | 168° |
| 2026-04-24 22:04 | 49.98126 | 0.04741 | 31220 ft | 473 kts | 168° |
| 2026-04-24 22:05 | 49.91734 | 0.07179 | 31216 ft | 474 kts | 167° |
| 2026-04-24 22:05 | 49.85338 | 0.09673 | 31211 ft | 474 kts | 167° |
| 2026-04-24 22:06 | 49.78938 | 0.12173 | 31209 ft | 474 kts | 167° |
| 2026-04-24 22:06 | 49.72533 | 0.14663 | 31205 ft | 474 kts | 167° |
| 2026-04-24 22:07 | 49.66131 | 0.17157 | 31214 ft | 474 kts | 167° |
| 2026-04-24 22:07 | 49.59747 | 0.19750 | 31210 ft | 474 kts | 166° |
| 2026-04-24 22:08 | 49.53371 | 0.22351 | 31215 ft | 474 kts | 166° |
| 2026-04-24 22:08 | 49.46990 | 0.24930 | 31210 ft | 474 kts | 166° |
| 2026-04-24 22:09 | 49.40618 | 0.27490 | 31212 ft | 473 kts | 167° |
| 2026-04-24 22:09 | 49.34253 | 0.30042 | 31210 ft | 473 kts | 167° |
| 2026-04-24 22:10 | 49.27891 | 0.32618 | 31210 ft | 473 kts | 166° |
| 2026-04-24 22:10 | 49.21594 | 0.35280 | 31197 ft | 473 kts | 166° |
| 2026-04-24 22:11 | 49.15258 | 0.37964 | 31198 ft | 472 kts | 166° |
| 2026-04-24 22:11 | 49.08920 | 0.40624 | 31196 ft | 472 kts | 166° |
| 2026-04-24 22:12 | 49.02582 | 0.43268 | 31194 ft | 472 kts | 166° |
| 2026-04-24 22:12 | 48.96250 | 0.45902 | 31191 ft | 473 kts | 166° |
| 2026-04-24 22:13 | 48.89902 | 0.48537 | 31200 ft | 473 kts | 166° |
| 2026-04-24 22:13 | 48.83534 | 0.51172 | 31198 ft | 475 kts | 166° |
| 2026-04-24 22:14 | 48.78232 | 0.53359 | 31193 ft | 475 kts | 166° |
| 2026-04-24 22:14 | 48.71785 | 0.55902 | 31195 ft | 476 kts | 167° |
| 2026-04-24 22:15 | 48.65416 | 0.58367 | 31192 ft | 476 kts | 167° |
| 2026-04-24 22:15 | 48.58984 | 0.60866 | 31191 ft | 477 kts | 166° |
| 2026-04-24 22:16 | 48.52563 | 0.63363 | 31183 ft | 477 kts | 166° |
| 2026-04-24 22:16 | 48.46162 | 0.65930 | 31182 ft | 477 kts | 166° |
| 2026-04-24 22:17 | 48.39751 | 0.68558 | 31177 ft | 477 kts | 166° |
| 2026-04-24 22:17 | 48.33346 | 0.71159 | 31176 ft | 477 kts | 166° |
| 2026-04-24 22:18 | 48.26937 | 0.73744 | 31171 ft | 477 kts | 166° |
| 2026-04-24 22:18 | 48.20525 | 0.76305 | 31165 ft | 477 kts | 166° |
| 2026-04-24 22:19 | 48.14108 | 0.78827 | 31167 ft | 477 kts | 166° |
| 2026-04-24 22:19 | 48.07688 | 0.81343 | 31162 ft | 477 kts | 166° |
| 2026-04-24 22:20 | 48.01269 | 0.83856 | 31153 ft | 477 kts | 166° |
| 2026-04-24 22:20 | 47.94850 | 0.86364 | 31146 ft | 478 kts | 166° |
| 2026-04-24 22:21 | 47.88410 | 0.88872 | 31154 ft | 479 kts | 166° |
| 2026-04-24 22:21 | 47.81954 | 0.91382 | 31149 ft | 480 kts | 166° |
| 2026-04-24 22:22 | 47.75520 | 0.93876 | 31136 ft | 481 kts | 166° |
| 2026-04-24 22:22 | 47.68988 | 0.96398 | 31137 ft | 482 kts | 166° |
| 2026-04-24 22:23 | 47.62536 | 0.98883 | 31133 ft | 483 kts | 166° |
| 2026-04-24 22:23 | 47.56035 | 1.01379 | 31131 ft | 482 kts | 166° |
| 2026-04-24 22:24 | 47.49541 | 1.03866 | 31134 ft | 482 kts | 166° |
| 2026-04-24 22:24 | 47.43020 | 1.06180 | 31126 ft | 481 kts | 173° |
| 2026-04-24 22:25 | 47.36369 | 1.06438 | 31127 ft | 478 kts | 183° |
| 2026-04-24 22:25 | 47.29723 | 1.06160 | 31124 ft | 478 kts | 183° |
| 2026-04-24 22:26 | 47.23079 | 1.05959 | 31127 ft | 477 kts | 182° |
| 2026-04-24 22:26 | 47.16440 | 1.05811 | 31122 ft | 477 kts | 182° |
| 2026-04-24 22:27 | 47.09811 | 1.05666 | 31126 ft | 476 kts | 182° |
| 2026-04-24 22:27 | 47.03191 | 1.05519 | 31131 ft | 476 kts | 182° |
| 2026-04-24 22:28 | 46.96631 | 1.05291 | 31122 ft | 475 kts | 183° |
| 2026-04-24 22:28 | 46.90020 | 1.04983 | 31122 ft | 474 kts | 184° |
| 2026-04-24 22:29 | 46.80125 | 1.04536 | 31120 ft | 474 kts | 183° |
| 2026-04-24 22:29 | 46.73529 | 1.04251 | 31122 ft | 474 kts | 183° |
| 2026-04-24 22:30 | 46.66928 | 1.03966 | 31133 ft | 474 kts | 183° |
| 2026-04-24 22:30 | 46.60328 | 1.03679 | 31123 ft | 474 kts | 183° |
| 2026-04-24 22:31 | 46.53735 | 1.03401 | 31120 ft | 474 kts | 182° |
| 2026-04-24 22:31 | 46.47188 | 1.04571 | 31132 ft | 476 kts | 168° |
| 2026-04-24 22:32 | 46.40744 | 1.06840 | 31112 ft | 476 kts | 168° |
| 2026-04-24 22:32 | 46.34300 | 1.09082 | 31112 ft | 476 kts | 168° |
| 2026-04-24 22:33 | 46.27862 | 1.11251 | 31121 ft | 475 kts | 168° |
| 2026-04-24 22:33 | 46.21434 | 1.13384 | 31134 ft | 474 kts | 168° |
| 2026-04-24 22:34 | 46.15008 | 1.15509 | 31124 ft | 474 kts | 168° |
| 2026-04-24 22:34 | 46.08587 | 1.17630 | 31134 ft | 472 kts | 168° |
| 2026-04-24 22:35 | 46.02188 | 1.19741 | 31125 ft | 472 kts | 169° |
| 2026-04-24 22:35 | 45.95778 | 1.21850 | 31128 ft | 473 kts | 169° |
| 2026-04-24 22:36 | 45.89371 | 1.23953 | 31130 ft | 472 kts | 169° |
| 2026-04-24 22:36 | 45.83002 | 1.26038 | 31128 ft | 472 kts | 169° |
| 2026-04-24 22:37 | 45.76588 | 1.28134 | 31127 ft | 473 kts | 169° |
| 2026-04-24 22:37 | 45.70182 | 1.30221 | 31129 ft | 472 kts | 169° |
| 2026-04-24 22:38 | 45.63781 | 1.32302 | 31130 ft | 472 kts | 169° |
| 2026-04-24 22:38 | 45.57385 | 1.34376 | 31126 ft | 471 kts | 169° |
| 2026-04-24 22:39 | 45.50991 | 1.36444 | 31122 ft | 470 kts | 169° |
| 2026-04-24 22:39 | 45.44609 | 1.38506 | 31118 ft | 470 kts | 169° |
| 2026-04-24 22:40 | 45.38237 | 1.40564 | 31119 ft | 470 kts | 169° |
| 2026-04-24 22:40 | 45.31868 | 1.42616 | 31123 ft | 469 kts | 169° |
| 2026-04-24 22:41 | 45.25502 | 1.44659 | 31124 ft | 469 kts | 169° |
| 2026-04-24 22:41 | 45.19140 | 1.46696 | 31128 ft | 468 kts | 169° |
| 2026-04-24 22:42 | 45.12788 | 1.48725 | 31130 ft | 468 kts | 169° |
| 2026-04-24 22:42 | 45.06434 | 1.50750 | 31131 ft | 468 kts | 169° |
| 2026-04-24 22:43 | 45.00085 | 1.52769 | 31133 ft | 467 kts | 169° |
| 2026-04-24 22:43 | 44.93739 | 1.54782 | 31115 ft | 468 kts | 169° |
| 2026-04-24 22:44 | 44.87387 | 1.56793 | 31122 ft | 468 kts | 169° |
| 2026-04-24 22:44 | 44.81033 | 1.58799 | 31122 ft | 468 kts | 169° |
| 2026-04-24 22:45 | 44.74676 | 1.60802 | 31120 ft | 469 kts | 169° |
| 2026-04-24 22:45 | 44.68308 | 1.62804 | 31120 ft | 469 kts | 169° |
| 2026-04-24 22:46 | 44.61938 | 1.64802 | 31122 ft | 469 kts | 169° |
| 2026-04-24 22:46 | 44.55564 | 1.66796 | 31123 ft | 469 kts | 169° |
| 2026-04-24 22:47 | 44.49237 | 1.68772 | 31129 ft | 469 kts | 169° |
| 2026-04-24 22:47 | 44.42828 | 1.70768 | 31128 ft | 469 kts | 169° |
| 2026-04-24 22:48 | 44.36454 | 1.72747 | 31125 ft | 469 kts | 169° |
| 2026-04-24 22:48 | 44.30088 | 1.74722 | 31128 ft | 469 kts | 169° |
| 2026-04-24 22:49 | 44.23724 | 1.76314 | 31128 ft | 468 kts | 173° |
| 2026-04-24 22:49 | 44.17286 | 1.77649 | 31130 ft | 468 kts | 173° |
| 2026-04-24 22:50 | 44.10851 | 1.79018 | 31126 ft | 468 kts | 172° |
| 2026-04-24 22:50 | 44.04420 | 1.80427 | 31131 ft | 468 kts | 172° |
| 2026-04-24 22:51 | 43.97988 | 1.81838 | 31124 ft | 468 kts | 172° |
| 2026-04-24 22:51 | 43.91538 | 1.82961 | 31130 ft | 467 kts | 176° |
| 2026-04-24 22:52 | 43.85070 | 1.83535 | 31134 ft | 466 kts | 178° |
| 2026-04-24 22:52 | 43.78589 | 1.84073 | 31132 ft | 466 kts | 177° |
| 2026-04-24 22:53 | 43.72118 | 1.84672 | 31136 ft | 466 kts | 177° |
| 2026-04-24 22:53 | 43.65648 | 1.85299 | 31134 ft | 466 kts | 177° |
| 2026-04-24 22:54 | 43.59187 | 1.85926 | 31142 ft | 465 kts | 177° |
| 2026-04-24 22:54 | 43.52727 | 1.86549 | 31142 ft | 465 kts | 177° |
| 2026-04-24 22:55 | 43.46268 | 1.87169 | 31141 ft | 465 kts | 177° |
| 2026-04-24 22:55 | 43.39812 | 1.87786 | 31132 ft | 465 kts | 177° |
| 2026-04-24 22:56 | 43.33356 | 1.88405 | 31139 ft | 465 kts | 177° |
| 2026-04-24 22:56 | 43.26902 | 1.89030 | 31143 ft | 465 kts | 177° |
| 2026-04-24 22:57 | 43.20452 | 1.89653 | 31145 ft | 465 kts | 177° |
| 2026-04-24 22:57 | 43.13997 | 1.90273 | 31141 ft | 465 kts | 177° |
| 2026-04-24 22:58 | 43.07536 | 1.90891 | 31142 ft | 465 kts | 177° |
| 2026-04-24 22:58 | 43.01069 | 1.91507 | 31138 ft | 466 kts | 176° |
| 2026-04-24 22:59 | 42.94601 | 1.92123 | 31143 ft | 467 kts | 176° |
| 2026-04-24 23:00 | 42.84870 | 1.93046 | 31148 ft | 468 kts | 177° |
| 2026-04-24 23:00 | 42.78376 | 1.93660 | 31152 ft | 468 kts | 176° |
| 2026-04-24 23:01 | 42.71865 | 1.94274 | 31149 ft | 469 kts | 177° |
| 2026-04-24 23:01 | 42.66460 | 1.94817 | 31148 ft | 469 kts | 175° |
| 2026-04-24 23:02 | 42.59991 | 1.96037 | 31162 ft | 469 kts | 172° |
| 2026-04-24 23:02 | 42.53543 | 1.97431 | 31152 ft | 469 kts | 172° |
| 2026-04-24 23:02 | 42.50311 | 1.98101 | 30959 ft | 472 kts | 172° |
| 2026-04-24 23:03 | 42.47047 | 1.98757 | 30226 ft | 474 kts | 172° |
| 2026-04-24 23:03 | 42.43793 | 1.99401 | 29325 ft | 473 kts | 172° |
| 2026-04-24 23:03 | 42.40539 | 2.00042 | 28427 ft | 472 kts | 172° |
| 2026-04-24 23:03 | 42.37293 | 2.00685 | 27497 ft | 472 kts | 172° |
| 2026-04-24 23:04 | 42.34046 | 2.01218 | 26798 ft | 468 kts | 175° |
| 2026-04-24 23:04 | 42.30815 | 2.01603 | 26114 ft | 463 kts | 176° |
| 2026-04-24 23:04 | 42.27622 | 2.01947 | 25462 ft | 459 kts | 175° |
| 2026-04-24 23:04 | 42.24453 | 2.02310 | 24826 ft | 455 kts | 175° |
| 2026-04-24 23:05 | 42.21316 | 2.02675 | 24176 ft | 451 kts | 177° |
| 2026-04-24 23:05 | 42.18220 | 2.02276 | 23468 ft | 447 kts | 197° |
| 2026-04-24 23:05 | 42.15379 | 2.00657 | 22730 ft | 443 kts | 212° |
| 2026-04-24 23:05 | 42.12971 | 1.98116 | 22066 ft | 437 kts | 223° |
| 2026-04-24 23:06 | 42.10781 | 1.95311 | 21438 ft | 433 kts | 224° |
| 2026-04-24 23:06 | 42.08633 | 1.92510 | 20814 ft | 429 kts | 224° |
| 2026-04-24 23:06 | 42.06490 | 1.89735 | 20196 ft | 425 kts | 224° |
| 2026-04-24 23:06 | 42.04360 | 1.87012 | 19590 ft | 421 kts | 224° |
| 2026-04-24 23:07 | 42.02236 | 1.84324 | 18987 ft | 418 kts | 223° |
| 2026-04-24 23:07 | 42.00119 | 1.81660 | 18365 ft | 416 kts | 223° |
| 2026-04-24 23:07 | 41.98011 | 1.79014 | 17682 ft | 413 kts | 223° |
| 2026-04-24 23:07 | 41.95915 | 1.76400 | 17057 ft | 409 kts | 222° |
| 2026-04-24 23:08 | 41.93705 | 1.74022 | 16430 ft | 406 kts | 216° |
| 2026-04-24 23:08 | 41.91399 | 1.71857 | 15823 ft | 403 kts | 214° |
| 2026-04-24 23:08 | 41.89869 | 1.70468 | 15428 ft | 401 kts | 214° |
| 2026-04-24 23:08 | 41.86803 | 1.67667 | 14656 ft | 397 kts | 214° |
| 2026-04-24 23:09 | 41.84545 | 1.65565 | 14068 ft | 394 kts | 215° |
| 2026-04-24 23:09 | 41.82305 | 1.63450 | 13425 ft | 392 kts | 215° |
| 2026-04-24 23:09 | 41.80092 | 1.61346 | 12821 ft | 389 kts | 215° |
| 2026-04-24 23:09 | 41.77893 | 1.59254 | 12229 ft | 385 kts | 215° |
| 2026-04-24 23:10 | 41.75715 | 1.57184 | 11655 ft | 382 kts | 215° |
| 2026-04-24 23:10 | 41.73514 | 1.55227 | 11093 ft | 379 kts | 207° |
| 2026-04-24 23:10 | 41.71044 | 1.54214 | 10551 ft | 376 kts | 189° |
| 2026-04-24 23:10 | 41.68447 | 1.53632 | 9977 ft | 373 kts | 189° |
| 2026-04-24 23:11 | 41.65894 | 1.53025 | 9374 ft | 371 kts | 190° |
| 2026-04-24 23:11 | 41.63366 | 1.52397 | 8792 ft | 368 kts | 190° |
| 2026-04-24 23:11 | 41.60864 | 1.51763 | 8239 ft | 365 kts | 190° |
| 2026-04-24 23:11 | 41.58415 | 1.51139 | 7701 ft | 362 kts | 189° |
| 2026-04-24 23:12 | 41.55948 | 1.50511 | 7498 ft | 349 kts | 189° |
| 2026-04-24 23:12 | 41.53588 | 1.50314 | 7314 ft | 335 kts | 171° |
| 2026-04-24 23:12 | 41.51341 | 1.50860 | 7199 ft | 322 kts | 168° |
| 2026-04-24 23:12 | 41.49203 | 1.51385 | 7055 ft | 311 kts | 168° |
| 2026-04-24 23:13 | 41.47080 | 1.51884 | 6923 ft | 301 kts | 169° |
| 2026-04-24 23:13 | 41.45044 | 1.52352 | 6794 ft | 292 kts | 169° |
| 2026-04-24 23:13 | 41.43095 | 1.52793 | 6634 ft | 285 kts | 169° |
| 2026-04-24 23:13 | 41.41153 | 1.53231 | 6434 ft | 280 kts | 169° |
| 2026-04-24 23:14 | 41.39262 | 1.53655 | 6300 ft | 272 kts | 169° |
| 2026-04-24 23:14 | 41.37416 | 1.54069 | 6176 ft | 264 kts | 169° |
| 2026-04-24 23:14 | 41.35628 | 1.54470 | 6059 ft | 257 kts | 169° |
| 2026-04-24 23:14 | 41.33870 | 1.54500 | 5861 ft | 255 kts | 195° |
| 2026-04-24 23:15 | 41.32272 | 1.53544 | 5685 ft | 251 kts | 205° |
| 2026-04-24 23:15 | 41.30706 | 1.52520 | 5437 ft | 248 kts | 205° |
| 2026-04-24 23:15 | 41.29176 | 1.51538 | 5204 ft | 241 kts | 205° |
| 2026-04-24 23:15 | 41.27678 | 1.50587 | 4950 ft | 236 kts | 204° |
| 2026-04-24 23:16 | 41.26212 | 1.49662 | 4693 ft | 230 kts | 204° |
| 2026-04-24 23:16 | 41.24791 | 1.48758 | 4459 ft | 223 kts | 207° |
| 2026-04-24 23:16 | 41.23697 | 1.47393 | 4279 ft | 214 kts | 239° |
| 2026-04-24 23:16 | 41.23065 | 1.45600 | 4189 ft | 215 kts | 248° |
| 2026-04-24 23:17 | 41.22534 | 1.43739 | 4070 ft | 216 kts | 249° |
| 2026-04-24 23:17 | 41.22031 | 1.41864 | 3930 ft | 215 kts | 249° |
| 2026-04-24 23:17 | 41.21515 | 1.40016 | 3666 ft | 211 kts | 248° |
| 2026-04-24 23:17 | 41.20995 | 1.38219 | 3408 ft | 206 kts | 247° |
| 2026-04-24 23:18 | 41.20485 | 1.36472 | 3128 ft | 201 kts | 247° |
| 2026-04-24 23:18 | 41.19986 | 1.34765 | 2855 ft | 194 kts | 247° |
| 2026-04-24 23:18 | 41.19512 | 1.33138 | 2607 ft | 183 kts | 247° |
| 2026-04-24 23:18 | 41.19067 | 1.31613 | 2375 ft | 172 kts | 247° |
| 2026-04-24 23:19 | 41.18649 | 1.30176 | 2161 ft | 160 kts | 247° |
| 2026-04-24 23:19 | 41.18261 | 1.28845 | 1932 ft | 151 kts | 247° |
| 2026-04-24 23:19 | 41.17885 | 1.27555 | 1744 ft | 150 kts | 247° |
| 2026-04-24 23:19 | 41.17506 | 1.26251 | 1543 ft | 152 kts | 247° |
| 2026-04-24 23:20 | 41.17128 | 1.24946 | 1336 ft | 151 kts | 247° |
| 2026-04-24 23:20 | 41.16752 | 1.23655 | 1120 ft | 150 kts | 248° |
| 2026-04-24 23:20 | 41.16377 | 1.22353 | 914 ft | 152 kts | 249° |
| 2026-04-24 23:20 | 41.16003 | 1.21043 | 727 ft | 151 kts | 248° |
| 2026-04-24 23:21 | 41.15623 | 1.19733 | 503 ft | 153 kts | 249° |
| 2026-04-24 23:21 | 41.15240 | 1.18423 | 306 ft | 151 kts | 248° |
| 2026-04-24 23:21 | 41.14882 | 1.17206 | 240 ft | 121 kts | 250° |
| 2026-04-24 23:21 | 41.14656 | 1.16435 | 238 ft | 58 kts | 249° |
| 2026-04-24 23:22 | 41.14549 | 1.16079 | 237 ft | 38 kts | 248° |
| 2026-04-24 23:22 | 41.14538 | 1.15897 | 237 ft | 7 kts | 325° |
| 2026-04-24 23:22 | 41.14583 | 1.15876 | 238 ft | 8 kts | 341° |
| 2026-04-24 23:22 | 41.14615 | 1.15861 | 238 ft | 0 kts | 340° |
| 2026-04-24 23:23 | 41.14628 | 1.15854 | 238 ft | 5 kts | 339° |
| 2026-04-24 23:23 | 41.14665 | 1.15861 | 238 ft | 5 kts | 45° |
| 2026-04-24 23:23 | 41.14686 | 1.15925 | 239 ft | 10 kts | 69° |
| 2026-04-24 23:24 | 41.14711 | 1.16011 | 239 ft | 10 kts | 68° |
| 2026-04-24 23:24 | 41.14730 | 1.16074 | 239 ft | 0 kts | 66° |
| 2026-04-24 23:24 | 41.14736 | 1.16078 | 239 ft | 2 kts | 14° |
| 2026-04-24 23:24 | 41.14763 | 1.16068 | 239 ft | 5 kts | 341° |
| 2026-04-24 23:25 | 41.14798 | 1.16050 | 239 ft | 5 kts | 337° |
| 2026-04-24 23:25 | 41.14811 | 1.16043 | 239 ft | 0 kts | 336° |